sensor_id;sensor_type;location;lat;lon;timestamp;pressure;altitude;pressure_sealevel;temperature;humidity
70434;BME280;57876;47.792;12.960;2023-01-19T00:00:05;95488.16;;;16.67;43.59
70434;BME280;57876;47.792;12.960;2023-01-19T00:02:30;95499.09;;;16.67;43.78
70434;BME280;57876;47.792;12.960;2023-01-19T00:04:55;95499.78;;;16.64;43.29
70434;BME280;57876;47.792;12.960;2023-01-19T00:07:19;95506.84;;;16.65;43.58
70434;BME280;57876;47.792;12.960;2023-01-19T00:09:44;95511.09;;;16.62;43.28
70434;BME280;57876;47.792;12.960;2023-01-19T00:12:08;95517.69;;;16.61;43.47
70434;BME280;57876;47.792;12.960;2023-01-19T00:14:33;95527.81;;;16.61;43.60
70434;BME280;57876;47.792;12.960;2023-01-19T00:16:57;95536.00;;;16.61;43.47
70434;BME280;57876;47.792;12.960;2023-01-19T00:19:22;95534.44;;;16.60;43.41
70434;BME280;57876;47.792;12.960;2023-01-19T00:21:46;95546.03;;;16.57;43.66
70434;BME280;57876;47.792;12.960;2023-01-19T00:24:10;95549.13;;;16.55;43.72
70434;BME280;57876;47.792;12.960;2023-01-19T00:26:36;95551.06;;;16.55;43.60
70434;BME280;57876;47.792;12.960;2023-01-19T00:29:03;95559.25;;;16.55;43.64
70434;BME280;57876;47.792;12.960;2023-01-19T00:31:28;95558.81;;;16.52;43.51
70434;BME280;57876;47.792;12.960;2023-01-19T00:33:53;95561.53;;;16.52;43.49
70434;BME280;57876;47.792;12.960;2023-01-19T00:36:17;95559.16;;;16.51;43.57
70434;BME280;57876;47.792;12.960;2023-01-19T00:38:42;95564.97;;;16.49;43.51
70434;BME280;57876;47.792;12.960;2023-01-19T00:41:06;95566.09;;;16.48;43.67
70434;BME280;57876;47.792;12.960;2023-01-19T00:43:31;95570.78;;;16.48;43.37
70434;BME280;57876;47.792;12.960;2023-01-19T00:45:55;95571.16;;;16.46;43.69
70434;BME280;57876;47.792;12.960;2023-01-19T00:48:20;95573.06;;;16.46;43.47
70434;BME280;57876;47.792;12.960;2023-01-19T00:50:44;95578.09;;;16.44;43.53
70434;BME280;57876;47.792;12.960;2023-01-19T00:53:10;95574.56;;;16.43;43.77
70434;BME280;57876;47.792;12.960;2023-01-19T00:55:35;95573.78;;;16.43;43.50
70434;BME280;57876;47.792;12.960;2023-01-19T00:57:59;95578.78;;;16.41;43.53
70434;BME280;57876;47.792;12.960;2023-01-19T01:00:24;95581.88;;;16.39;43.51
70434;BME280;57876;47.792;12.960;2023-01-19T01:02:51;95585.75;;;16.38;43.55
70434;BME280;57876;47.792;12.960;2023-01-19T01:05:16;95580.66;;;16.37;43.83
70434;BME280;57876;47.792;12.960;2023-01-19T01:07:41;95584.94;;;16.38;43.85
70434;BME280;57876;47.792;12.960;2023-01-19T01:12:36;95589.16;;;16.35;43.45
70434;BME280;57876;47.792;12.960;2023-01-19T01:15:00;95593.06;;;16.34;43.95
70434;BME280;57876;47.792;12.960;2023-01-19T01:17:25;95584.09;;;16.34;43.46
70434;BME280;57876;47.792;12.960;2023-01-19T01:19:50;95588.75;;;16.33;43.63
70434;BME280;57876;47.792;12.960;2023-01-19T01:22:15;95586.38;;;16.32;43.85
70434;BME280;57876;47.792;12.960;2023-01-19T01:24:39;95580.00;;;16.27;43.79
70434;BME280;57876;47.792;12.960;2023-01-19T01:27:04;95586.69;;;16.30;43.87
70434;BME280;57876;47.792;12.960;2023-01-19T01:29:28;95584.34;;;16.28;43.78
70434;BME280;57876;47.792;12.960;2023-01-19T01:31:52;95579.22;;;16.27;43.69
70434;BME280;57876;47.792;12.960;2023-01-19T01:34:17;95588.56;;;16.26;43.76
70434;BME280;57876;47.792;12.960;2023-01-19T01:36:41;95583.91;;;16.26;43.99
70434;BME280;57876;47.792;12.960;2023-01-19T01:39:06;95584.59;;;16.23;43.73
70434;BME280;57876;47.792;12.960;2023-01-19T01:41:30;95579.16;;;16.23;43.54
70434;BME280;57876;47.792;12.960;2023-01-19T01:43:56;95590.06;;;16.23;43.84
70434;BME280;57876;47.792;12.960;2023-01-19T01:46:29;95579.84;;;16.20;43.91
70434;BME280;57876;47.792;12.960;2023-01-19T01:49:04;95582.91;;;16.19;43.84
70434;BME280;57876;47.792;12.960;2023-01-19T01:51:37;95577.47;;;16.19;43.66
70434;BME280;57876;47.792;12.960;2023-01-19T01:54:09;95583.38;;;16.21;43.62
70434;BME280;57876;47.792;12.960;2023-01-19T01:56:38;95574.28;;;16.17;43.85
70434;BME280;57876;47.792;12.960;2023-01-19T01:59:07;95580.09;;;16.15;44.01
70434;BME280;57876;47.792;12.960;2023-01-19T02:01:34;95581.34;;;16.18;43.73
70434;BME280;57876;47.792;12.960;2023-01-19T02:04:17;95580.56;;;16.17;43.61
70434;BME280;57876;47.792;12.960;2023-01-19T02:06:42;95584.41;;;16.16;43.49
70434;BME280;57876;47.792;12.960;2023-01-19T02:09:26;95583.63;;;16.16;43.80
70434;BME280;57876;47.792;12.960;2023-01-19T02:12:11;95583.97;;;16.14;43.79
70434;BME280;57876;47.792;12.960;2023-01-19T02:14:54;95587.06;;;16.13;43.52
70434;BME280;57876;47.792;12.960;2023-01-19T02:17:18;95592.16;;;16.14;43.64
70434;BME280;57876;47.792;12.960;2023-01-19T02:19:43;95589.00;;;16.12;43.64
70434;BME280;57876;47.792;12.960;2023-01-19T02:22:17;95585.38;;;16.08;44.09
70434;BME280;57876;47.792;12.960;2023-01-19T02:24:43;95598.31;;;16.11;43.70
70434;BME280;57876;47.792;12.960;2023-01-19T02:27:08;95586.16;;;16.08;43.67
70434;BME280;57876;47.792;12.960;2023-01-19T02:29:33;95592.75;;;16.07;43.72
70434;BME280;57876;47.792;12.960;2023-01-19T02:31:58;95593.56;;;16.08;43.94
70434;BME280;57876;47.792;12.960;2023-01-19T02:34:22;95606.06;;;16.09;43.84
70434;BME280;57876;47.792;12.960;2023-01-19T02:36:53;95606.06;;;16.09;44.01
70434;BME280;57876;47.792;12.960;2023-01-19T02:39:43;95600.16;;;16.07;43.79
70434;BME280;57876;47.792;12.960;2023-01-19T02:42:12;95612.75;;;16.12;43.80
70434;BME280;57876;47.792;12.960;2023-01-19T02:44:38;95606.16;;;16.13;43.90
70434;BME280;57876;47.792;12.960;2023-01-19T02:47:03;95604.66;;;16.15;43.68
70434;BME280;57876;47.792;12.960;2023-01-19T02:49:29;95595.69;;;16.15;43.34
70434;BME280;57876;47.792;12.960;2023-01-19T02:51:53;95601.56;;;16.17;43.63
70434;BME280;57876;47.792;12.960;2023-01-19T02:57:18;95615.66;;;16.19;43.87
70434;BME280;57876;47.792;12.960;2023-01-19T03:10:52;95622.72;;;16.20;43.88
70434;BME280;57876;47.792;12.960;2023-01-19T03:18:54;95620.41;;;16.22;43.53
70434;BME280;57876;47.792;12.960;2023-01-19T03:21:22;95622.00;;;16.23;43.89
70434;BME280;57876;47.792;12.960;2023-01-19T03:23:49;95625.88;;;16.22;43.80
70434;BME280;57876;47.792;12.960;2023-01-19T03:26:17;95625.88;;;16.22;44.06
70434;BME280;57876;47.792;12.960;2023-01-19T03:28:43;95627.91;;;16.25;43.82
70434;BME280;57876;47.792;12.960;2023-01-19T03:31:29;95641.56;;;16.25;43.89
70434;BME280;57876;47.792;12.960;2023-01-19T03:34:02;95636.09;;;16.25;43.91
70434;BME280;57876;47.792;12.960;2023-01-19T03:36:53;95636.88;;;16.25;43.87
70434;BME280;57876;47.792;12.960;2023-01-19T03:39:23;95634.50;;;16.24;43.70
70434;BME280;57876;47.792;12.960;2023-01-19T03:41:55;95628.69;;;16.25;44.05
70434;BME280;57876;47.792;12.960;2023-01-19T03:44:22;95632.22;;;16.26;43.87
70434;BME280;57876;47.792;12.960;2023-01-19T03:46:49;95633.00;;;16.26;44.01
70434;BME280;57876;47.792;12.960;2023-01-19T03:49:14;95638.47;;;16.26;43.97
70434;BME280;57876;47.792;12.960;2023-01-19T03:51:38;95644.72;;;16.27;43.68
70434;BME280;57876;47.792;12.960;2023-01-19T03:54:04;95636.88;;;16.25;43.67
70434;BME280;57876;47.792;12.960;2023-01-19T03:56:28;95641.19;;;16.26;43.81
70434;BME280;57876;47.792;12.960;2023-01-19T03:58:53;95645.50;;;16.27;44.12
70434;BME280;57876;47.792;12.960;2023-01-19T04:01:18;95645.06;;;16.25;44.13
70434;BME280;57876;47.792;12.960;2023-01-19T04:03:45;95647.44;;;16.27;43.58
70434;BME280;57876;47.792;12.960;2023-01-19T04:06:10;95647.44;;;16.27;43.89
70434;BME280;57876;47.792;12.960;2023-01-19T04:08:35;95652.56;;;16.28;43.92
70434;BME280;57876;47.792;12.960;2023-01-19T04:10:59;95653.69;;;16.27;43.49
70434;BME280;57876;47.792;12.960;2023-01-19T04:13:24;95651.75;;;16.28;44.02
70434;BME280;57876;47.792;12.960;2023-01-19T04:15:51;95651.75;;;16.28;43.89
70434;BME280;57876;47.792;12.960;2023-01-19T04:18:15;95649.03;;;16.28;43.97
70434;BME280;57876;47.792;12.960;2023-01-19T04:20:39;95651.75;;;16.28;43.86
70434;BME280;57876;47.792;12.960;2023-01-19T04:23:04;95658.78;;;16.29;43.99
70434;BME280;57876;47.792;12.960;2023-01-19T04:25:28;95660.75;;;16.28;43.96
70434;BME280;57876;47.792;12.960;2023-01-19T04:27:53;95652.56;;;16.28;43.74
70434;BME280;57876;47.792;12.960;2023-01-19T04:30:18;95654.13;;;16.29;43.90
70434;BME280;57876;47.792;12.960;2023-01-19T04:32:43;95660.75;;;16.28;43.70
70434;BME280;57876;47.792;12.960;2023-01-19T04:35:07;95661.53;;;16.29;43.67
70434;BME280;57876;47.792;12.960;2023-01-19T04:37:31;95663.81;;;16.27;43.95
70434;BME280;57876;47.792;12.960;2023-01-19T04:39:56;95663.47;;;16.28;43.94
70434;BME280;57876;47.792;12.960;2023-01-19T04:42:20;95662.22;;;16.26;43.74
70434;BME280;57876;47.792;12.960;2023-01-19T04:44:45;95668.13;;;16.28;43.92
70434;BME280;57876;47.792;12.960;2023-01-19T04:47:09;95669.25;;;16.27;43.80
70434;BME280;57876;47.792;12.960;2023-01-19T04:49:34;95670.41;;;16.26;43.95
70434;BME280;57876;47.792;12.960;2023-01-19T04:52:04;95667.22;;;16.24;44.17
70434;BME280;57876;47.792;12.960;2023-01-19T04:54:29;95674.28;;;16.25;43.69
70434;BME280;57876;47.792;12.960;2023-01-19T04:56:53;95677.34;;;16.23;43.73
70434;BME280;57876;47.792;12.960;2023-01-19T04:59:18;95677.03;;;16.25;44.19
70434;BME280;57876;47.792;12.960;2023-01-19T05:01:43;95673.13;;;16.26;43.98
70434;BME280;57876;47.792;12.960;2023-01-19T05:04:07;95682.19;;;16.30;44.14
70434;BME280;57876;47.792;12.960;2023-01-19T05:06:32;95683.09;;;16.34;44.26
70434;BME280;57876;47.792;12.960;2023-01-19T05:08:57;95694.47;;;16.36;43.74
70434;BME280;57876;47.792;12.960;2023-01-19T05:11:22;95696.84;;;16.38;43.76
70434;BME280;57876;47.792;12.960;2023-01-19T05:13:46;95709.78;;;16.41;43.64
70434;BME280;57876;47.792;12.960;2023-01-19T05:16:10;95706.72;;;16.42;43.72
70434;BME280;57876;47.792;12.960;2023-01-19T05:18:37;95709.78;;;16.41;44.09
70434;BME280;57876;47.792;12.960;2023-01-19T05:21:05;95712.16;;;16.42;43.61
70434;BME280;57876;47.792;12.960;2023-01-19T05:23:29;95714.09;;;16.42;44.10
70434;BME280;57876;47.792;12.960;2023-01-19T05:25:55;95718.78;;;16.41;43.76
70434;BME280;57876;47.792;12.960;2023-01-19T05:28:20;95712.88;;;16.39;44.03
70434;BME280;57876;47.792;12.960;2023-01-19T05:30:44;95717.53;;;16.39;43.80
70434;BME280;57876;47.792;12.960;2023-01-19T05:33:09;95721.38;;;16.38;44.11
70434;BME280;57876;47.792;12.960;2023-01-19T05:35:33;95712.78;;;16.36;43.96
70434;BME280;57876;47.792;12.960;2023-01-19T05:37:57;95722.22;;;16.38;43.97
70434;BME280;57876;47.792;12.960;2023-01-19T05:40:22;95729.31;;;16.43;43.80
70434;BME280;57876;47.792;12.960;2023-01-19T05:42:46;95733.66;;;16.44;43.86
70434;BME280;57876;47.792;12.960;2023-01-19T05:45:11;95737.63;;;16.46;43.89
70434;BME280;57876;47.792;12.960;2023-01-19T05:47:35;95739.66;;;16.49;43.89
70434;BME280;57876;47.792;12.960;2023-01-19T05:49:59;95739.28;;;16.51;44.02
70434;BME280;57876;47.792;12.960;2023-01-19T05:52:24;95738.59;;;16.54;43.51
70434;BME280;57876;47.792;12.960;2023-01-19T05:54:48;95746.91;;;16.58;44.03
70434;BME280;57876;47.792;12.960;2023-01-19T05:57:14;95743.47;;;16.61;43.71
70434;BME280;57876;47.792;12.960;2023-01-19T05:59:39;95744.38;;;16.65;43.96
70434;BME280;57876;47.792;12.960;2023-01-19T06:02:03;95751.84;;;16.68;43.61
70434;BME280;57876;47.792;12.960;2023-01-19T06:04:27;95752.72;;;16.72;43.96
70434;BME280;57876;47.792;12.960;2023-01-19T06:06:52;95748.50;;;16.74;43.93
70434;BME280;57876;47.792;12.960;2023-01-19T06:09:17;95758.75;;;16.78;43.54
70434;BME280;57876;47.792;12.960;2023-01-19T06:11:42;95763.94;;;16.83;44.08
70434;BME280;57876;47.792;12.960;2023-01-19T06:14:08;95761.66;;;16.85;43.51
70434;BME280;57876;47.792;12.960;2023-01-19T06:16:33;95759.38;;;16.87;43.61
70434;BME280;57876;47.792;12.960;2023-01-19T06:18:58;95766.09;;;16.89;43.93
70434;BME280;57876;47.792;12.960;2023-01-19T06:21:22;95769.69;;;16.93;43.44
70434;BME280;57876;47.792;12.960;2023-01-19T06:23:47;95773.22;;;16.94;43.46
70434;BME280;57876;47.792;12.960;2023-01-19T06:26:11;95779.91;;;16.97;43.78
70434;BME280;57876;47.792;12.960;2023-01-19T06:28:36;95776.50;;;17.00;43.84
70434;BME280;57876;47.792;12.960;2023-01-19T06:31:01;95787.84;;;17.02;43.84
70434;BME280;57876;47.792;12.960;2023-01-19T06:33:25;95783.19;;;17.02;43.82
70434;BME280;57876;47.792;12.960;2023-01-19T06:35:51;95776.91;;;17.02;43.46
70434;BME280;57876;47.792;12.960;2023-01-19T06:38:16;95785.56;;;17.04;44.09
70434;BME280;57876;47.792;12.960;2023-01-19T06:40:42;95785.56;;;17.04;43.89
70434;BME280;57876;47.792;12.960;2023-01-19T06:43:06;95784.00;;;17.03;43.56
70434;BME280;57876;47.792;12.960;2023-01-19T06:45:31;95791.41;;;17.02;43.95
70434;BME280;57876;47.792;12.960;2023-01-19T06:47:55;95786.28;;;17.01;43.90
70434;BME280;57876;47.792;12.960;2023-01-19T06:50:20;95786.59;;;16.99;43.77
70434;BME280;57876;47.792;12.960;2023-01-19T06:52:44;95794.81;;;16.99;43.93
70434;BME280;57876;47.792;12.960;2023-01-19T06:55:10;95802.22;;;16.99;43.67
70434;BME280;57876;47.792;12.960;2023-01-19T06:57:36;95793.56;;;16.97;43.70
70434;BME280;57876;47.792;12.960;2023-01-19T07:00:02;95801.34;;;16.94;43.82
70434;BME280;57876;47.792;12.960;2023-01-19T07:02:29;95807.94;;;16.93;43.97
70434;BME280;57876;47.792;12.960;2023-01-19T07:04:54;95814.19;;;16.94;44.10
70434;BME280;57876;47.792;12.960;2023-01-19T07:07:18;95812.59;;;16.93;44.03
70434;BME280;57876;47.792;12.960;2023-01-19T07:09:43;95817.28;;;16.92;43.89
70434;BME280;57876;47.792;12.960;2023-01-19T07:12:07;95817.28;;;16.92;43.50
70434;BME280;57876;47.792;12.960;2023-01-19T07:14:32;95829.34;;;16.91;43.95
70434;BME280;57876;47.792;12.960;2023-01-19T07:16:57;95825.81;;;16.91;43.91
70434;BME280;57876;47.792;12.960;2023-01-19T07:19:21;95832.09;;;16.91;43.87
70434;BME280;57876;47.792;12.960;2023-01-19T07:21:45;95831.28;;;16.91;43.35
70434;BME280;57876;47.792;12.960;2023-01-19T07:24:10;95835.16;;;16.90;43.83
70434;BME280;57876;47.792;12.960;2023-01-19T07:26:34;95832.75;;;16.88;44.11
70434;BME280;57876;47.792;12.960;2023-01-19T07:28:59;95836.66;;;16.87;43.52
70434;BME280;57876;47.792;12.960;2023-01-19T07:31:23;95832.34;;;16.86;43.87
70434;BME280;57876;47.792;12.960;2023-01-19T07:33:48;95830.41;;;16.87;43.87
70434;BME280;57876;47.792;12.960;2023-01-19T07:36:12;95836.66;;;16.87;43.66
70434;BME280;57876;47.792;12.960;2023-01-19T07:38:37;95842.91;;;16.88;44.13
70434;BME280;57876;47.792;12.960;2023-01-19T07:41:03;95835.84;;;16.87;44.05
70434;BME280;57876;47.792;12.960;2023-01-19T07:43:28;95835.84;;;16.87;44.03
70434;BME280;57876;47.792;12.960;2023-01-19T07:45:59;95842.81;;;16.84;43.97
70434;BME280;57876;47.792;12.960;2023-01-19T07:48:24;95843.25;;;16.86;43.75
70434;BME280;57876;47.792;12.960;2023-01-19T07:50:49;95839.72;;;16.86;43.85
70434;BME280;57876;47.792;12.960;2023-01-19T07:53:13;95847.13;;;16.85;43.46
70434;BME280;57876;47.792;12.960;2023-01-19T07:55:37;95848.28;;;16.84;44.06
70434;BME280;57876;47.792;12.960;2023-01-19T07:58:02;95848.28;;;16.84;44.02
70434;BME280;57876;47.792;12.960;2023-01-19T08:00:30;95858.41;;;16.84;43.55
70434;BME280;57876;47.792;12.960;2023-01-19T08:02:58;95860.31;;;16.83;43.44
70434;BME280;57876;47.792;12.960;2023-01-19T08:05:23;95865.13;;;16.86;43.44
70434;BME280;57876;47.792;12.960;2023-01-19T08:07:48;95867.84;;;16.86;43.92
70434;BME280;57876;47.792;12.960;2023-01-19T08:10:13;95870.13;;;16.84;43.83
70434;BME280;57876;47.792;12.960;2023-01-19T08:12:38;95865.44;;;16.85;43.25
70434;BME280;57876;47.792;12.960;2023-01-19T08:15:03;95870.56;;;16.86;43.39
70434;BME280;57876;47.792;12.960;2023-01-19T08:17:27;95874.09;;;16.87;43.78
70434;BME280;57876;47.792;12.960;2023-01-19T08:19:52;95874.09;;;16.87;43.56
70434;BME280;57876;47.792;12.960;2023-01-19T08:22:16;95880.34;;;16.87;43.47
70434;BME280;57876;47.792;12.960;2023-01-19T08:24:42;95874.44;;;16.85;43.84
70434;BME280;57876;47.792;12.960;2023-01-19T08:27:06;95885.81;;;16.87;43.90
70434;BME280;57876;47.792;12.960;2023-01-19T08:29:32;95889.69;;;16.86;43.42
70434;BME280;57876;47.792;12.960;2023-01-19T08:31:57;95886.97;;;16.86;43.35
70434;BME280;57876;47.792;12.960;2023-01-19T08:34:23;95887.75;;;16.87;43.42
70434;BME280;57876;47.792;12.960;2023-01-19T08:36:47;95900.63;;;16.86;43.92
70434;BME280;57876;47.792;12.960;2023-01-19T08:39:12;95899.00;;;16.85;43.97
70434;BME280;57876;47.792;12.960;2023-01-19T08:41:36;95895.16;;;16.86;43.83
70434;BME280;57876;47.792;12.960;2023-01-19T08:44:01;95890.81;;;16.85;43.88
70434;BME280;57876;47.792;12.960;2023-01-19T08:46:25;95895.81;;;16.83;43.52
70434;BME280;57876;47.792;12.960;2023-01-19T08:48:50;95897.44;;;16.84;43.50
70434;BME280;57876;47.792;12.960;2023-01-19T08:51:15;95903.69;;;16.85;43.77
70434;BME280;57876;47.792;12.960;2023-01-19T08:53:40;95904.84;;;16.84;43.40
70434;BME280;57876;47.792;12.960;2023-01-19T08:56:06;95917.34;;;16.85;43.42
70434;BME280;57876;47.792;12.960;2023-01-19T08:58:35;95919.72;;;16.86;43.90
70434;BME280;57876;47.792;12.960;2023-01-19T09:00:59;95912.66;;;16.85;43.81
70434;BME280;57876;47.792;12.960;2023-01-19T09:03:24;95922.47;;;16.86;43.47
70434;BME280;57876;47.792;12.960;2023-01-19T09:05:48;95927.56;;;16.88;43.36
70434;BME280;57876;47.792;12.960;2023-01-19T09:08:13;95923.25;;;16.87;43.51
70434;BME280;57876;47.792;12.960;2023-01-19T09:10:42;95932.25;;;16.87;43.50
70434;BME280;57876;47.792;12.960;2023-01-19T09:13:09;95934.19;;;16.87;43.53
70434;BME280;57876;47.792;12.960;2023-01-19T09:15:34;95936.91;;;16.87;43.73
70434;BME280;57876;47.792;12.960;2023-01-19T09:18:01;95941.22;;;16.88;43.46
70434;BME280;57876;47.792;12.960;2023-01-19T09:20:26;95943.63;;;16.89;43.84
70434;BME280;57876;47.792;12.960;2023-01-19T09:22:51;95942.00;;;16.88;43.82
70434;BME280;57876;47.792;12.960;2023-01-19T09:25:18;95938.16;;;16.89;43.76
70434;BME280;57876;47.792;12.960;2023-01-19T09:27:42;95941.69;;;16.90;43.49
70434;BME280;57876;47.792;12.960;2023-01-19T09:30:07;95945.91;;;16.87;43.91
70434;BME280;57876;47.792;12.960;2023-01-19T09:32:34;95952.59;;;16.90;43.50
70434;BME280;57876;47.792;12.960;2023-01-19T09:34:59;95955.34;;;16.90;43.76
70434;BME280;57876;47.792;12.960;2023-01-19T09:37:23;95953.84;;;16.92;43.30
70434;BME280;57876;47.792;12.960;2023-01-19T09:39:48;95950.66;;;16.90;43.74
70434;BME280;57876;47.792;12.960;2023-01-19T09:44:45;95956.91;;;16.91;43.75
70434;BME280;57876;47.792;12.960;2023-01-19T09:47:15;95942.47;;;16.90;43.75
70434;BME280;57876;47.792;12.960;2023-01-19T09:49:43;95949.06;;;16.89;43.23
70434;BME280;57876;47.792;12.960;2023-01-19T09:52:13;95957.72;;;16.91;43.89
70434;BME280;57876;47.792;12.960;2023-01-19T09:54:58;95955.00;;;16.91;43.54
70434;BME280;57876;47.792;12.960;2023-01-19T09:57:24;95958.84;;;16.90;43.55
70434;BME280;57876;47.792;12.960;2023-01-19T09:59:50;95959.31;;;16.92;43.57
70434;BME280;57876;47.792;12.960;2023-01-19T10:10:22;95945.97;;;16.91;43.79
70434;BME280;57876;47.792;12.960;2023-01-19T10:20:33;95948.28;;;16.89;43.33
70434;BME280;57876;47.792;12.960;2023-01-19T10:22:58;95952.25;;;16.91;43.79
70434;BME280;57876;47.792;12.960;2023-01-19T10:25:23;95951.81;;;16.89;43.82
70434;BME280;57876;47.792;12.960;2023-01-19T10:27:48;95949.06;;;16.89;43.50
70434;BME280;57876;47.792;12.960;2023-01-19T10:30:22;95944.41;;;16.90;43.57
70434;BME280;57876;47.792;12.960;2023-01-19T10:32:48;95945.19;;;16.90;43.83
70434;BME280;57876;47.792;12.960;2023-01-19T10:35:16;95939.97;;;16.85;43.76
70434;BME280;57876;47.792;12.960;2023-01-19T10:37:46;95943.94;;;16.88;43.15
70434;BME280;57876;47.792;12.960;2023-01-19T10:42:37;95945.19;;;16.90;43.75
70434;BME280;57876;47.792;12.960;2023-01-19T10:45:02;95939.72;;;16.90;43.38
70434;BME280;57876;47.792;12.960;2023-01-19T10:47:34;95930.28;;;16.88;43.68
70434;BME280;57876;47.792;12.960;2023-01-19T10:50:28;95935.41;;;16.89;43.58
70434;BME280;57876;47.792;12.960;2023-01-19T10:52:55;95922.88;;;16.88;43.39
70434;BME280;57876;47.792;12.960;2023-01-19T10:55:31;95922.09;;;16.88;43.26
70434;BME280;57876;47.792;12.960;2023-01-19T10:57:57;95924.94;;;16.91;43.29
70434;BME280;57876;47.792;12.960;2023-01-19T11:00:48;95922.22;;;16.91;43.45
70434;BME280;57876;47.792;12.960;2023-01-19T11:03:29;95920.28;;;16.92;43.67
70434;BME280;57876;47.792;12.960;2023-01-19T11:06:25;95914.03;;;16.91;43.23
70434;BME280;57876;47.792;12.960;2023-01-19T11:08:50;95920.28;;;16.92;43.46
70434;BME280;57876;47.792;12.960;2023-01-19T11:11:16;95915.59;;;16.92;43.54
70434;BME280;57876;47.792;12.960;2023-01-19T11:13:42;95910.16;;;16.92;43.65
70434;BME280;57876;47.792;12.960;2023-01-19T11:16:15;95909.69;;;16.90;43.46
70434;BME280;57876;47.792;12.960;2023-01-19T11:18:43;95908.19;;;16.93;43.34
70434;BME280;57876;47.792;12.960;2023-01-19T11:21:14;95905.38;;;16.89;43.77
70434;BME280;57876;47.792;12.960;2023-01-19T11:23:45;95902.28;;;16.91;43.31
70434;BME280;57876;47.792;12.960;2023-01-19T11:26:24;95906.25;;;16.93;43.47
70434;BME280;57876;47.792;12.960;2023-01-19T11:28:50;95909.34;;;16.92;43.39
70434;BME280;57876;47.792;12.960;2023-01-19T11:31:28;95903.09;;;16.91;43.10
70434;BME280;57876;47.792;12.960;2023-01-19T11:33:59;95900.38;;;16.91;43.52
70434;BME280;57876;47.792;12.960;2023-01-19T11:36:25;95900.00;;;16.93;43.60
70434;BME280;57876;47.792;12.960;2023-01-19T11:38:53;95902.28;;;16.91;43.42
70434;BME280;57876;47.792;12.960;2023-01-19T11:41:21;95897.63;;;16.91;43.48
70434;BME280;57876;47.792;12.960;2023-01-19T11:43:51;95900.38;;;16.91;43.45
70434;BME280;57876;47.792;12.960;2023-01-19T11:46:17;95894.91;;;16.91;43.54
70434;BME280;57876;47.792;12.960;2023-01-19T11:48:55;95899.22;;;16.92;43.40
70434;BME280;57876;47.792;12.960;2023-01-19T11:51:32;95896.50;;;16.92;43.63
70434;BME280;57876;47.792;12.960;2023-01-19T11:54:00;95887.50;;;16.92;43.35
70434;BME280;57876;47.792;12.960;2023-01-19T11:56:27;95885.09;;;16.90;43.44
70434;BME280;57876;47.792;12.960;2023-01-19T11:58:52;95885.56;;;16.92;43.43
70434;BME280;57876;47.792;12.960;2023-01-19T12:01:32;95888.28;;;16.92;43.71
70434;BME280;57876;47.792;12.960;2023-01-19T12:04:12;95877.38;;;16.92;43.58
70434;BME280;57876;47.792;12.960;2023-01-19T12:06:41;95874.53;;;16.89;43.50
70434;BME280;57876;47.792;12.960;2023-01-19T12:09:16;95880.09;;;16.92;43.31
70434;BME280;57876;47.792;12.960;2023-01-19T12:11:54;95876.59;;;16.92;43.13
70434;BME280;57876;47.792;12.960;2023-01-19T12:14:33;95877.00;;;16.94;43.38
70434;BME280;57876;47.792;12.960;2023-01-19T12:16:59;95876.22;;;16.93;43.55
70434;BME280;57876;47.792;12.960;2023-01-19T12:22:03;95866.00;;;16.90;43.05
70434;BME280;57876;47.792;12.960;2023-01-19T12:24:29;95866.44;;;16.92;43.20
70434;BME280;57876;47.792;12.960;2023-01-19T12:27:05;95862.91;;;16.92;43.79
70434;BME280;57876;47.792;12.960;2023-01-19T12:29:34;95866.00;;;16.90;43.30
70434;BME280;57876;47.792;12.960;2023-01-19T12:34:46;95868.72;;;16.90;43.49
70434;BME280;57876;47.792;12.960;2023-01-19T12:37:29;95868.72;;;16.90;43.28
70434;BME280;57876;47.792;12.960;2023-01-19T12:40:46;95869.88;;;16.89;43.56
70434;BME280;57876;47.792;12.960;2023-01-19T12:42:47;95867.94;;;16.90;43.63
70434;BME280;57876;47.792;12.960;2023-01-19T12:45:21;95865.53;;;16.88;43.60
70434;BME280;57876;47.792;12.960;2023-01-19T12:47:52;95863.25;;;16.90;43.68
70434;BME280;57876;47.792;12.960;2023-01-19T12:50:18;95862.47;;;16.90;43.64
70434;BME280;57876;47.792;12.960;2023-01-19T12:52:49;95864.03;;;16.91;43.50
70434;BME280;57876;47.792;12.960;2023-01-19T12:55:23;95858.16;;;16.89;43.54
70434;BME280;57876;47.792;12.960;2023-01-19T12:57:57;95859.75;;;16.90;43.33
70434;BME280;57876;47.792;12.960;2023-01-19T13:02:55;95853.94;;;16.91;43.06
70434;BME280;57876;47.792;12.960;2023-01-19T13:05:24;95849.25;;;16.92;43.54
70434;BME280;57876;47.792;12.960;2023-01-19T13:15:47;95852.41;;;16.94;43.55
70434;BME280;57876;47.792;12.960;2023-01-19T13:18:20;95854.38;;;16.93;43.18
70434;BME280;57876;47.792;12.960;2023-01-19T13:21:04;95852.78;;;16.92;43.26
70434;BME280;57876;47.792;12.960;2023-01-19T13:26:26;95856.31;;;16.93;43.46
70434;BME280;57876;47.792;12.960;2023-01-19T13:28:54;95849.16;;;16.88;43.38
70434;BME280;57876;47.792;12.960;2023-01-19T13:31:19;95849.69;;;16.94;43.08
70434;BME280;57876;47.792;12.960;2023-01-19T13:33:51;95853.25;;;16.94;43.11
70434;BME280;57876;47.792;12.960;2023-01-19T13:38:56;95859.41;;;16.91;43.45
70434;BME280;57876;47.792;12.960;2023-01-19T13:41:26;95860.97;;;16.92;43.57
70434;BME280;57876;47.792;12.960;2023-01-19T13:44:17;95864.50;;;16.93;43.61
70434;BME280;57876;47.792;12.960;2023-01-19T13:46:39;95862.22;;;16.95;43.56
70434;BME280;57876;47.792;12.960;2023-01-19T13:49:15;95862.56;;;16.93;43.05
70434;BME280;57876;47.792;12.960;2023-01-19T13:51:41;95868.03;;;16.93;43.37
70434;BME280;57876;47.792;12.960;2023-01-19T13:54:14;95868.81;;;16.94;43.20